sensor_id;sensor_type;location;lat;lon;timestamp;P1;durP1;ratioP1;P2;durP2;ratioP2
13349;SDS011;6744;53.190;6.576;2022-08-21T00:00:06;2.90;;;2.17;;
13349;SDS011;6744;53.190;6.576;2022-08-21T00:02:35;3.57;;;2.30;;
13349;SDS011;6744;53.190;6.576;2022-08-21T00:05:01;2.73;;;1.90;;
13349;SDS011;6744;53.190;6.576;2022-08-21T00:07:27;3.10;;;2.10;;
13349;SDS011;6744;53.190;6.576;2022-08-21T00:09:52;3.80;;;2.37;;
13349;SDS011;6744;53.190;6.576;2022-08-21T00:12:18;3.93;;;2.33;;
13349;SDS011;6744;53.190;6.576;2022-08-21T00:14:43;4.83;;;2.20;;
13349;SDS011;6744;53.190;6.576;2022-08-21T00:17:09;4.33;;;2.20;;
13349;SDS011;6744;53.190;6.576;2022-08-21T00:19:34;2.97;;;2.07;;
13349;SDS011;6744;53.190;6.576;2022-08-21T00:22:00;3.83;;;2.20;;
13349;SDS011;6744;53.190;6.576;2022-08-21T00:24:25;5.13;;;2.40;;
13349;SDS011;6744;53.190;6.576;2022-08-21T00:26:51;5.47;;;2.40;;
13349;SDS011;6744;53.190;6.576;2022-08-21T00:29:17;4.17;;;2.80;;
13349;SDS011;6744;53.190;6.576;2022-08-21T00:31:42;4.03;;;2.43;;
13349;SDS011;6744;53.190;6.576;2022-08-21T00:34:08;4.40;;;2.53;;
13349;SDS011;6744;53.190;6.576;2022-08-21T00:36:35;3.80;;;2.47;;
13349;SDS011;6744;53.190;6.576;2022-08-21T00:39:01;3.90;;;2.50;;
13349;SDS011;6744;53.190;6.576;2022-08-21T00:41:27;4.20;;;2.53;;
13349;SDS011;6744;53.190;6.576;2022-08-21T00:43:53;5.90;;;2.80;;
13349;SDS011;6744;53.190;6.576;2022-08-21T00:46:19;5.13;;;2.63;;
13349;SDS011;6744;53.190;6.576;2022-08-21T00:48:45;4.20;;;2.80;;
13349;SDS011;6744;53.190;6.576;2022-08-21T00:51:12;3.50;;;2.50;;
13349;SDS011;6744;53.190;6.576;2022-08-21T00:53:42;4.57;;;2.70;;
13349;SDS011;6744;53.190;6.576;2022-08-21T00:56:09;3.30;;;2.27;;
13349;SDS011;6744;53.190;6.576;2022-08-21T00:58:35;3.40;;;2.30;;
13349;SDS011;6744;53.190;6.576;2022-08-21T01:01:03;3.77;;;2.63;;
13349;SDS011;6744;53.190;6.576;2022-08-21T01:03:30;3.53;;;2.37;;
13349;SDS011;6744;53.190;6.576;2022-08-21T01:05:55;4.57;;;2.90;;
13349;SDS011;6744;53.190;6.576;2022-08-21T01:08:21;4.53;;;2.70;;
13349;SDS011;6744;53.190;6.576;2022-08-21T01:10:47;4.33;;;2.47;;
13349;SDS011;6744;53.190;6.576;2022-08-21T01:13:13;3.67;;;2.60;;
13349;SDS011;6744;53.190;6.576;2022-08-21T01:15:42;4.97;;;2.80;;
13349;SDS011;6744;53.190;6.576;2022-08-21T01:18:09;3.30;;;2.40;;
13349;SDS011;6744;53.190;6.576;2022-08-21T01:20:36;4.73;;;2.70;;
13349;SDS011;6744;53.190;6.576;2022-08-21T01:23:04;3.67;;;2.30;;
13349;SDS011;6744;53.190;6.576;2022-08-21T01:25:30;4.43;;;2.50;;
13349;SDS011;6744;53.190;6.576;2022-08-21T01:27:56;2.67;;;2.20;;
13349;SDS011;6744;53.190;6.576;2022-08-21T01:30:26;3.30;;;2.53;;
13349;SDS011;6744;53.190;6.576;2022-08-21T01:32:52;4.70;;;2.60;;
13349;SDS011;6744;53.190;6.576;2022-08-21T01:35:18;4.00;;;2.47;;
13349;SDS011;6744;53.190;6.576;2022-08-21T01:37:44;3.20;;;2.53;;
13349;SDS011;6744;53.190;6.576;2022-08-21T01:40:10;3.47;;;2.87;;
13349;SDS011;6744;53.190;6.576;2022-08-21T01:42:39;4.10;;;2.70;;
13349;SDS011;6744;53.190;6.576;2022-08-21T01:45:06;5.13;;;2.93;;
13349;SDS011;6744;53.190;6.576;2022-08-21T01:47:33;4.30;;;2.80;;
13349;SDS011;6744;53.190;6.576;2022-08-21T01:49:58;4.23;;;2.90;;
13349;SDS011;6744;53.190;6.576;2022-08-21T01:52:23;4.43;;;2.90;;
13349;SDS011;6744;53.190;6.576;2022-08-21T01:54:49;3.87;;;2.73;;
13349;SDS011;6744;53.190;6.576;2022-08-21T01:57:14;4.37;;;2.90;;
13349;SDS011;6744;53.190;6.576;2022-08-21T01:59:40;4.23;;;3.27;;
13349;SDS011;6744;53.190;6.576;2022-08-21T02:02:06;4.33;;;3.00;;
13349;SDS011;6744;53.190;6.576;2022-08-21T02:04:31;4.87;;;3.30;;
13349;SDS011;6744;53.190;6.576;2022-08-21T02:06:57;5.67;;;3.10;;
13349;SDS011;6744;53.190;6.576;2022-08-21T02:09:24;4.70;;;2.70;;
13349;SDS011;6744;53.190;6.576;2022-08-21T02:11:49;4.17;;;2.90;;
13349;SDS011;6744;53.190;6.576;2022-08-21T02:14:16;5.43;;;3.20;;
13349;SDS011;6744;53.190;6.576;2022-08-21T02:16:42;4.87;;;3.33;;
13349;SDS011;6744;53.190;6.576;2022-08-21T02:19:09;5.57;;;3.80;;
13349;SDS011;6744;53.190;6.576;2022-08-21T02:21:35;5.10;;;3.73;;
13349;SDS011;6744;53.190;6.576;2022-08-21T02:24:00;4.20;;;3.30;;
13349;SDS011;6744;53.190;6.576;2022-08-21T02:26:26;5.80;;;3.47;;
13349;SDS011;6744;53.190;6.576;2022-08-21T02:28:52;4.70;;;3.00;;
13349;SDS011;6744;53.190;6.576;2022-08-21T02:31:18;4.80;;;3.37;;
13349;SDS011;6744;53.190;6.576;2022-08-21T02:33:43;4.07;;;3.13;;
13349;SDS011;6744;53.190;6.576;2022-08-21T02:36:10;5.80;;;3.40;;
13349;SDS011;6744;53.190;6.576;2022-08-21T02:38:37;4.90;;;3.20;;
13349;SDS011;6744;53.190;6.576;2022-08-21T02:41:05;4.23;;;3.30;;
13349;SDS011;6744;53.190;6.576;2022-08-21T02:43:32;5.03;;;3.80;;
13349;SDS011;6744;53.190;6.576;2022-08-21T02:45:58;4.70;;;3.73;;
13349;SDS011;6744;53.190;6.576;2022-08-21T02:48:25;6.23;;;3.80;;
13349;SDS011;6744;53.190;6.576;2022-08-21T02:50:56;6.07;;;3.67;;
13349;SDS011;6744;53.190;6.576;2022-08-21T02:53:29;4.53;;;3.10;;
13349;SDS011;6744;53.190;6.576;2022-08-21T02:55:56;4.67;;;3.67;;
13349;SDS011;6744;53.190;6.576;2022-08-21T02:58:24;5.83;;;3.93;;
13349;SDS011;6744;53.190;6.576;2022-08-21T03:00:51;5.03;;;4.17;;
13349;SDS011;6744;53.190;6.576;2022-08-21T03:03:17;6.83;;;4.47;;
13349;SDS011;6744;53.190;6.576;2022-08-21T03:05:43;6.63;;;4.10;;
13349;SDS011;6744;53.190;6.576;2022-08-21T03:08:09;6.67;;;4.57;;
13349;SDS011;6744;53.190;6.576;2022-08-21T03:10:37;5.27;;;4.17;;
13349;SDS011;6744;53.190;6.576;2022-08-21T03:13:04;6.87;;;4.80;;
13349;SDS011;6744;53.190;6.576;2022-08-21T03:15:31;7.70;;;4.50;;
13349;SDS011;6744;53.190;6.576;2022-08-21T03:17:57;4.87;;;4.20;;
13349;SDS011;6744;53.190;6.576;2022-08-21T03:20:23;5.83;;;3.87;;
13349;SDS011;6744;53.190;6.576;2022-08-21T03:22:52;7.50;;;4.87;;
13349;SDS011;6744;53.190;6.576;2022-08-21T03:25:18;6.53;;;4.60;;
13349;SDS011;6744;53.190;6.576;2022-08-21T03:27:44;5.53;;;4.40;;
13349;SDS011;6744;53.190;6.576;2022-08-21T03:30:09;7.17;;;4.70;;
13349;SDS011;6744;53.190;6.576;2022-08-21T03:32:35;5.90;;;4.03;;
13349;SDS011;6744;53.190;6.576;2022-08-21T03:35:01;6.37;;;4.30;;
13349;SDS011;6744;53.190;6.576;2022-08-21T03:37:27;4.83;;;4.23;;
13349;SDS011;6744;53.190;6.576;2022-08-21T03:39:53;6.83;;;4.43;;
13349;SDS011;6744;53.190;6.576;2022-08-21T03:42:18;5.90;;;4.60;;
13349;SDS011;6744;53.190;6.576;2022-08-21T03:44:44;4.90;;;4.13;;
13349;SDS011;6744;53.190;6.576;2022-08-21T03:47:09;7.63;;;4.33;;
13349;SDS011;6744;53.190;6.576;2022-08-21T03:49:36;5.83;;;4.50;;
13349;SDS011;6744;53.190;6.576;2022-08-21T03:52:02;5.00;;;4.50;;
13349;SDS011;6744;53.190;6.576;2022-08-21T03:54:28;5.50;;;3.97;;
13349;SDS011;6744;53.190;6.576;2022-08-21T03:56:54;5.77;;;4.13;;
13349;SDS011;6744;53.190;6.576;2022-08-21T03:59:19;8.00;;;4.80;;
13349;SDS011;6744;53.190;6.576;2022-08-21T04:01:58;6.67;;;4.27;;
13349;SDS011;6744;53.190;6.576;2022-08-21T04:04:26;6.67;;;4.40;;
13349;SDS011;6744;53.190;6.576;2022-08-21T04:06:52;4.70;;;3.80;;
13349;SDS011;6744;53.190;6.576;2022-08-21T04:09:18;5.13;;;4.20;;
13349;SDS011;6744;53.190;6.576;2022-08-21T04:11:43;4.77;;;3.80;;
13349;SDS011;6744;53.190;6.576;2022-08-21T04:14:10;7.53;;;4.77;;
13349;SDS011;6744;53.190;6.576;2022-08-21T04:16:35;9.07;;;4.97;;
13349;SDS011;6744;53.190;6.576;2022-08-21T04:19:00;6.93;;;4.50;;
13349;SDS011;6744;53.190;6.576;2022-08-21T04:21:26;6.93;;;4.90;;
13349;SDS011;6744;53.190;6.576;2022-08-21T04:23:53;6.17;;;4.57;;
13349;SDS011;6744;53.190;6.576;2022-08-21T04:26:19;5.50;;;4.30;;
13349;SDS011;6744;53.190;6.576;2022-08-21T04:28:44;5.73;;;4.27;;
13349;SDS011;6744;53.190;6.576;2022-08-21T04:31:10;7.90;;;4.40;;
13349;SDS011;6744;53.190;6.576;2022-08-21T04:33:35;6.63;;;4.40;;
13349;SDS011;6744;53.190;6.576;2022-08-21T04:36:01;6.57;;;4.37;;
13349;SDS011;6744;53.190;6.576;2022-08-21T04:38:26;5.67;;;3.90;;
13349;SDS011;6744;53.190;6.576;2022-08-21T04:40:52;6.87;;;4.30;;
13349;SDS011;6744;53.190;6.576;2022-08-21T04:43:18;5.63;;;4.07;;
13349;SDS011;6744;53.190;6.576;2022-08-21T04:45:46;7.10;;;4.40;;
13349;SDS011;6744;53.190;6.576;2022-08-21T04:48:13;5.23;;;3.90;;
13349;SDS011;6744;53.190;6.576;2022-08-21T04:50:45;5.37;;;4.47;;
13349;SDS011;6744;53.190;6.576;2022-08-21T04:53:20;6.43;;;4.43;;
13349;SDS011;6744;53.190;6.576;2022-08-21T04:55:49;5.33;;;4.47;;
13349;SDS011;6744;53.190;6.576;2022-08-21T04:58:17;6.03;;;3.90;;
13349;SDS011;6744;53.190;6.576;2022-08-21T05:00:44;6.53;;;4.20;;
13349;SDS011;6744;53.190;6.576;2022-08-21T05:03:10;7.00;;;4.70;;
13349;SDS011;6744;53.190;6.576;2022-08-21T05:05:37;9.40;;;5.30;;
13349;SDS011;6744;53.190;6.576;2022-08-21T05:08:04;7.13;;;4.30;;
13349;SDS011;6744;53.190;6.576;2022-08-21T05:10:29;7.47;;;4.50;;
13349;SDS011;6744;53.190;6.576;2022-08-21T05:12:56;7.77;;;4.87;;
13349;SDS011;6744;53.190;6.576;2022-08-21T05:15:22;4.93;;;4.03;;
13349;SDS011;6744;53.190;6.576;2022-08-21T05:17:47;5.67;;;4.07;;
13349;SDS011;6744;53.190;6.576;2022-08-21T05:20:13;5.43;;;4.03;;
13349;SDS011;6744;53.190;6.576;2022-08-21T05:22:39;5.50;;;3.90;;
13349;SDS011;6744;53.190;6.576;2022-08-21T05:25:05;9.20;;;4.37;;
13349;SDS011;6744;53.190;6.576;2022-08-21T05:27:31;6.13;;;4.07;;
13349;SDS011;6744;53.190;6.576;2022-08-21T05:29:57;6.73;;;4.03;;
13349;SDS011;6744;53.190;6.576;2022-08-21T05:32:23;8.03;;;4.37;;
13349;SDS011;6744;53.190;6.576;2022-08-21T05:34:49;7.23;;;4.33;;
13349;SDS011;6744;53.190;6.576;2022-08-21T05:37:14;8.40;;;4.03;;
13349;SDS011;6744;53.190;6.576;2022-08-21T05:39:40;6.90;;;4.20;;
13349;SDS011;6744;53.190;6.576;2022-08-21T05:42:06;6.77;;;4.40;;
13349;SDS011;6744;53.190;6.576;2022-08-21T05:44:32;8.53;;;4.37;;
13349;SDS011;6744;53.190;6.576;2022-08-21T05:47:07;6.20;;;3.97;;
13349;SDS011;6744;53.190;6.576;2022-08-21T05:49:34;7.37;;;4.57;;
13349;SDS011;6744;53.190;6.576;2022-08-21T05:52:00;6.40;;;4.20;;
13349;SDS011;6744;53.190;6.576;2022-08-21T05:54:26;8.67;;;4.40;;
13349;SDS011;6744;53.190;6.576;2022-08-21T05:56:51;9.10;;;4.60;;
13349;SDS011;6744;53.190;6.576;2022-08-21T05:59:17;6.43;;;3.93;;
13349;SDS011;6744;53.190;6.576;2022-08-21T06:01:43;6.73;;;4.00;;
13349;SDS011;6744;53.190;6.576;2022-08-21T06:04:10;9.17;;;4.43;;
13349;SDS011;6744;53.190;6.576;2022-08-21T06:06:35;8.63;;;4.73;;
13349;SDS011;6744;53.190;6.576;2022-08-21T06:09:00;7.13;;;4.30;;
13349;SDS011;6744;53.190;6.576;2022-08-21T06:11:27;6.70;;;4.30;;
13349;SDS011;6744;53.190;6.576;2022-08-21T06:13:52;7.70;;;4.10;;
13349;SDS011;6744;53.190;6.576;2022-08-21T06:16:18;6.67;;;3.87;;
13349;SDS011;6744;53.190;6.576;2022-08-21T06:18:43;7.17;;;3.97;;
13349;SDS011;6744;53.190;6.576;2022-08-21T06:21:09;8.20;;;4.07;;
13349;SDS011;6744;53.190;6.576;2022-08-21T06:23:36;7.37;;;3.97;;
13349;SDS011;6744;53.190;6.576;2022-08-21T06:26:02;7.20;;;3.63;;
13349;SDS011;6744;53.190;6.576;2022-08-21T06:28:29;7.20;;;4.50;;
13349;SDS011;6744;53.190;6.576;2022-08-21T06:30:55;8.77;;;3.77;;
13349;SDS011;6744;53.190;6.576;2022-08-21T06:33:20;7.93;;;4.50;;
13349;SDS011;6744;53.190;6.576;2022-08-21T06:35:45;7.30;;;4.67;;
13349;SDS011;6744;53.190;6.576;2022-08-21T06:38:11;7.13;;;3.70;;
13349;SDS011;6744;53.190;6.576;2022-08-21T06:40:36;5.23;;;3.77;;
13349;SDS011;6744;53.190;6.576;2022-08-21T06:43:10;6.97;;;4.23;;
13349;SDS011;6744;53.190;6.576;2022-08-21T06:45:37;6.43;;;3.60;;
13349;SDS011;6744;53.190;6.576;2022-08-21T06:48:02;10.33;;;4.60;;
13349;SDS011;6744;53.190;6.576;2022-08-21T06:50:28;5.77;;;3.80;;
13349;SDS011;6744;53.190;6.576;2022-08-21T06:52:58;6.07;;;3.33;;
13349;SDS011;6744;53.190;6.576;2022-08-21T06:55:31;6.47;;;3.17;;
13349;SDS011;6744;53.190;6.576;2022-08-21T06:57:57;6.87;;;3.53;;
13349;SDS011;6744;53.190;6.576;2022-08-21T07:00:22;7.23;;;3.17;;
13349;SDS011;6744;53.190;6.576;2022-08-21T07:02:48;6.53;;;2.67;;
13349;SDS011;6744;53.190;6.576;2022-08-21T07:05:13;5.03;;;2.57;;
13349;SDS011;6744;53.190;6.576;2022-08-21T07:07:39;5.20;;;2.77;;
13349;SDS011;6744;53.190;6.576;2022-08-21T07:10:04;7.33;;;3.30;;
13349;SDS011;6744;53.190;6.576;2022-08-21T07:12:30;8.37;;;3.37;;
13349;SDS011;6744;53.190;6.576;2022-08-21T07:14:56;5.50;;;2.53;;
13349;SDS011;6744;53.190;6.576;2022-08-21T07:17:21;9.67;;;2.73;;
13349;SDS011;6744;53.190;6.576;2022-08-21T07:19:47;4.10;;;2.30;;
13349;SDS011;6744;53.190;6.576;2022-08-21T07:22:12;7.40;;;2.90;;
13349;SDS011;6744;53.190;6.576;2022-08-21T07:24:38;5.37;;;2.87;;
13349;SDS011;6744;53.190;6.576;2022-08-21T07:27:04;7.43;;;2.43;;
13349;SDS011;6744;53.190;6.576;2022-08-21T07:29:29;8.07;;;2.53;;
13349;SDS011;6744;53.190;6.576;2022-08-21T07:31:54;6.10;;;2.13;;
13349;SDS011;6744;53.190;6.576;2022-08-21T07:34:20;6.50;;;2.50;;
13349;SDS011;6744;53.190;6.576;2022-08-21T07:36:45;4.80;;;2.13;;
13349;SDS011;6744;53.190;6.576;2022-08-21T07:39:11;7.47;;;2.40;;
13349;SDS011;6744;53.190;6.576;2022-08-21T07:41:37;5.40;;;1.93;;
13349;SDS011;6744;53.190;6.576;2022-08-21T07:44:02;5.67;;;2.27;;
13349;SDS011;6744;53.190;6.576;2022-08-21T07:46:28;6.47;;;2.33;;
13349;SDS011;6744;53.190;6.576;2022-08-21T07:48:53;7.17;;;2.03;;
13349;SDS011;6744;53.190;6.576;2022-08-21T07:51:20;5.17;;;2.00;;
13349;SDS011;6744;53.190;6.576;2022-08-21T07:53:51;4.63;;;1.87;;
13349;SDS011;6744;53.190;6.576;2022-08-21T07:56:18;5.87;;;1.80;;
13349;SDS011;6744;53.190;6.576;2022-08-21T07:58:44;6.23;;;1.90;;
13349;SDS011;6744;53.190;6.576;2022-08-21T08:01:09;4.53;;;1.80;;
13349;SDS011;6744;53.190;6.576;2022-08-21T08:03:35;5.77;;;1.80;;
13349;SDS011;6744;53.190;6.576;2022-08-21T08:06:00;6.13;;;2.07;;
13349;SDS011;6744;53.190;6.576;2022-08-21T08:08:26;5.23;;;1.90;;
13349;SDS011;6744;53.190;6.576;2022-08-21T08:10:52;6.20;;;1.87;;
13349;SDS011;6744;53.190;6.576;2022-08-21T08:13:18;7.43;;;1.83;;
13349;SDS011;6744;53.190;6.576;2022-08-21T08:15:44;4.93;;;1.80;;
13349;SDS011;6744;53.190;6.576;2022-08-21T08:18:09;4.57;;;1.60;;
13349;SDS011;6744;53.190;6.576;2022-08-21T08:20:35;5.47;;;1.67;;
13349;SDS011;6744;53.190;6.576;2022-08-21T08:23:00;5.30;;;1.90;;
13349;SDS011;6744;53.190;6.576;2022-08-21T08:25:26;4.47;;;1.50;;
13349;SDS011;6744;53.190;6.576;2022-08-21T08:27:52;7.90;;;1.80;;
13349;SDS011;6744;53.190;6.576;2022-08-21T08:30:19;4.23;;;1.80;;
13349;SDS011;6744;53.190;6.576;2022-08-21T08:32:45;6.67;;;1.90;;
13349;SDS011;6744;53.190;6.576;2022-08-21T08:35:11;6.10;;;1.70;;
13349;SDS011;6744;53.190;6.576;2022-08-21T08:37:38;6.03;;;2.30;;
13349;SDS011;6744;53.190;6.576;2022-08-21T08:40:06;4.87;;;1.97;;
13349;SDS011;6744;53.190;6.576;2022-08-21T08:42:35;6.37;;;1.93;;
13349;SDS011;6744;53.190;6.576;2022-08-21T08:45:03;7.53;;;2.10;;
13349;SDS011;6744;53.190;6.576;2022-08-21T08:47:35;5.53;;;1.93;;
13349;SDS011;6744;53.190;6.576;2022-08-21T08:52:37;6.80;;;2.57;;
13349;SDS011;6744;53.190;6.576;2022-08-21T08:55:08;5.27;;;1.80;;
13349;SDS011;6744;53.190;6.576;2022-08-21T08:57:37;6.10;;;2.53;;
13349;SDS011;6744;53.190;6.576;2022-08-21T09:00:07;7.50;;;2.33;;
13349;SDS011;6744;53.190;6.576;2022-08-21T09:02:36;8.23;;;2.47;;
13349;SDS011;6744;53.190;6.576;2022-08-21T09:05:03;9.70;;;2.80;;
13349;SDS011;6744;53.190;6.576;2022-08-21T09:07:47;5.13;;;2.20;;
13349;SDS011;6744;53.190;6.576;2022-08-21T09:10:30;6.97;;;2.10;;
13349;SDS011;6744;53.190;6.576;2022-08-21T09:23:28;5.90;;;2.20;;
13349;SDS011;6744;53.190;6.576;2022-08-21T09:26:01;8.77;;;2.70;;
13349;SDS011;6744;53.190;6.576;2022-08-21T09:28:33;6.97;;;2.37;;
13349;SDS011;6744;53.190;6.576;2022-08-21T09:30:59;8.10;;;2.80;;
13349;SDS011;6744;53.190;6.576;2022-08-21T09:33:27;7.60;;;2.10;;
13349;SDS011;6744;53.190;6.576;2022-08-21T09:35:53;6.97;;;2.27;;
13349;SDS011;6744;53.190;6.576;2022-08-21T09:38:27;7.77;;;2.30;;
13349;SDS011;6744;53.190;6.576;2022-08-21T09:41:01;6.30;;;2.60;;
13349;SDS011;6744;53.190;6.576;2022-08-21T09:43:29;6.00;;;2.30;;
13349;SDS011;6744;53.190;6.576;2022-08-21T09:46:11;6.83;;;2.40;;
13349;SDS011;6744;53.190;6.576;2022-08-21T09:48:45;6.33;;;2.30;;
13349;SDS011;6744;53.190;6.576;2022-08-21T09:51:17;7.07;;;2.20;;
13349;SDS011;6744;53.190;6.576;2022-08-21T09:53:45;7.13;;;2.30;;
13349;SDS011;6744;53.190;6.576;2022-08-21T09:59:39;6.73;;;2.27;;
13349;SDS011;6744;53.190;6.576;2022-08-21T10:01:59;7.40;;;2.03;;
13349;SDS011;6744;53.190;6.576;2022-08-21T10:04:30;4.87;;;2.10;;
13349;SDS011;6744;53.190;6.576;2022-08-21T10:09:33;6.93;;;2.20;;
13349;SDS011;6744;53.190;6.576;2022-08-21T10:12:05;4.87;;;2.10;;
13349;SDS011;6744;53.190;6.576;2022-08-21T10:25:41;6.63;;;2.23;;
13349;SDS011;6744;53.190;6.576;2022-08-21T10:28:15;5.27;;;1.90;;
13349;SDS011;6744;53.190;6.576;2022-08-21T10:36:19;5.23;;;2.00;;
13349;SDS011;6744;53.190;6.576;2022-08-21T10:39:02;5.17;;;1.80;;
13349;SDS011;6744;53.190;6.576;2022-08-21T10:41:37;4.10;;;1.60;;
13349;SDS011;6744;53.190;6.576;2022-08-21T10:47:05;4.93;;;1.83;;
13349;SDS011;6744;53.190;6.576;2022-08-21T10:49:45;6.03;;;2.20;;
13349;SDS011;6744;53.190;6.576;2022-08-21T11:00:07;6.57;;;2.10;;
13349;SDS011;6744;53.190;6.576;2022-08-21T11:02:44;4.83;;;2.17;;
13349;SDS011;6744;53.190;6.576;2022-08-21T11:05:42;4.53;;;2.17;;
13349;SDS011;6744;53.190;6.576;2022-08-21T11:08:14;5.27;;;2.10;;
13349;SDS011;6744;53.190;6.576;2022-08-21T11:10:47;5.57;;;2.23;;
13349;SDS011;6744;53.190;6.576;2022-08-21T11:18:49;4.27;;;1.70;;
13349;SDS011;6744;53.190;6.576;2022-08-21T11:26:53;6.30;;;2.17;;
13349;SDS011;6744;53.190;6.576;2022-08-21T11:29:29;3.83;;;1.60;;
13349;SDS011;6744;53.190;6.576;2022-08-21T11:32:00;4.33;;;2.00;;
13349;SDS011;6744;53.190;6.576;2022-08-21T11:35:02;3.33;;;1.90;;
13349;SDS011;6744;53.190;6.576;2022-08-21T11:43:40;4.50;;;2.07;;
13349;SDS011;6744;53.190;6.576;2022-08-21T11:48:59;9.00;;;2.60;;
13349;SDS011;6744;53.190;6.576;2022-08-21T11:51:34;6.90;;;2.43;;
13349;SDS011;6744;53.190;6.576;2022-08-21T11:56:47;6.37;;;2.63;;
13349;SDS011;6744;53.190;6.576;2022-08-21T11:59:39;5.33;;;2.10;;
13349;SDS011;6744;53.190;6.576;2022-08-21T12:02:09;5.00;;;2.13;;
13349;SDS011;6744;53.190;6.576;2022-08-21T12:04:42;5.73;;;2.27;;
13349;SDS011;6744;53.190;6.576;2022-08-21T12:07:11;6.57;;;2.03;;
13349;SDS011;6744;53.190;6.576;2022-08-21T12:09:39;6.00;;;1.90;;
13349;SDS011;6744;53.190;6.576;2022-08-21T12:15:03;5.63;;;2.07;;
13349;SDS011;6744;53.190;6.576;2022-08-21T12:17:36;5.60;;;2.23;;
13349;SDS011;6744;53.190;6.576;2022-08-21T12:20:26;5.50;;;2.37;;
13349;SDS011;6744;53.190;6.576;2022-08-21T12:26:18;5.13;;;2.23;;
13349;SDS011;6744;53.190;6.576;2022-08-21T12:28:40;5.53;;;2.03;;
13349;SDS011;6744;53.190;6.576;2022-08-21T12:31:16;6.03;;;2.20;;
13349;SDS011;6744;53.190;6.576;2022-08-21T12:33:49;5.57;;;2.17;;
13349;SDS011;6744;53.190;6.576;2022-08-21T12:36:18;6.47;;;2.03;;
13349;SDS011;6744;53.190;6.576;2022-08-21T12:39:03;5.80;;;1.97;;
13349;SDS011;6744;53.190;6.576;2022-08-21T12:41:41;6.00;;;2.07;;
13349;SDS011;6744;53.190;6.576;2022-08-21T12:44:13;4.50;;;1.93;;
13349;SDS011;6744;53.190;6.576;2022-08-21T12:46:43;6.00;;;2.10;;
13349;SDS011;6744;53.190;6.576;2022-08-21T12:49:13;5.27;;;1.80;;
13349;SDS011;6744;53.190;6.576;2022-08-21T12:54:24;5.93;;;2.20;;
13349;SDS011;6744;53.190;6.576;2022-08-21T12:57:01;4.43;;;1.93;;
13349;SDS011;6744;53.190;6.576;2022-08-21T12:59:28;4.90;;;1.80;;
13349;SDS011;6744;53.190;6.576;2022-08-21T13:01:54;3.67;;;1.70;;
13349;SDS011;6744;53.190;6.576;2022-08-21T13:04:23;6.37;;;1.70;;
13349;SDS011;6744;53.190;6.576;2022-08-21T13:07:11;3.77;;;1.47;;
13349;SDS011;6744;53.190;6.576;2022-08-21T13:09:41;6.07;;;1.90;;
13349;SDS011;6744;53.190;6.576;2022-08-21T13:12:24;4.67;;;1.60;;
13349;SDS011;6744;53.190;6.576;2022-08-21T13:14:51;3.63;;;1.67;;
13349;SDS011;6744;53.190;6.576;2022-08-21T13:17:18;6.03;;;1.93;;
13349;SDS011;6744;53.190;6.576;2022-08-21T13:19:57;4.43;;;1.83;;
13349;SDS011;6744;53.190;6.576;2022-08-21T13:22:25;5.10;;;1.80;;
13349;SDS011;6744;53.190;6.576;2022-08-21T13:24:51;5.27;;;2.03;;
13349;SDS011;6744;53.190;6.576;2022-08-21T13:27:17;3.10;;;1.53;;
13349;SDS011;6744;53.190;6.576;2022-08-21T13:29:45;4.07;;;1.60;;
13349;SDS011;6744;53.190;6.576;2022-08-21T13:32:16;3.13;;;1.63;;
13349;SDS011;6744;53.190;6.576;2022-08-21T13:34:46;3.23;;;1.53;;
13349;SDS011;6744;53.190;6.576;2022-08-21T13:37:12;3.87;;;2.00;;
13349;SDS011;6744;53.190;6.576;2022-08-21T13:39:38;3.70;;;1.67;;
13349;SDS011;6744;53.190;6.576;2022-08-21T13:42:04;4.23;;;1.83;;
13349;SDS011;6744;53.190;6.576;2022-08-21T13:44:36;5.17;;;1.70;;
13349;SDS011;6744;53.190;6.576;2022-08-21T13:47:06;3.43;;;1.60;;
13349;SDS011;6744;53.190;6.576;2022-08-21T13:49:33;3.17;;;1.60;;
13349;SDS011;6744;53.190;6.576;2022-08-21T13:52:00;4.57;;;1.80;;
13349;SDS011;6744;53.190;6.576;2022-08-21T13:54:29;4.53;;;1.70;;
13349;SDS011;6744;53.190;6.576;2022-08-21T13:56:59;5.70;;;1.90;;
13349;SDS011;6744;53.190;6.576;2022-08-21T13:59:29;4.10;;;1.73;;
13349;SDS011;6744;53.190;6.576;2022-08-21T14:02:00;3.17;;;1.50;;
13349;SDS011;6744;53.190;6.576;2022-08-21T14:04:37;3.77;;;1.60;;
13349;SDS011;6744;53.190;6.576;2022-08-21T14:07:18;2.87;;;1.60;;
13349;SDS011;6744;53.190;6.576;2022-08-21T14:09:46;4.90;;;1.60;;
13349;SDS011;6744;53.190;6.576;2022-08-21T14:12:13;5.73;;;2.17;;
13349;SDS011;6744;53.190;6.576;2022-08-21T14:14:41;3.87;;;1.60;;
13349;SDS011;6744;53.190;6.576;2022-08-21T14:17:07;3.07;;;1.40;;
13349;SDS011;6744;53.190;6.576;2022-08-21T14:19:36;3.60;;;1.67;;
13349;SDS011;6744;53.190;6.576;2022-08-21T14:24:47;4.43;;;1.57;;
13349;SDS011;6744;53.190;6.576;2022-08-21T14:27:15;3.13;;;1.50;;
13349;SDS011;6744;53.190;6.576;2022-08-21T14:29:42;2.27;;;1.37;;
13349;SDS011;6744;53.190;6.576;2022-08-21T14:32:15;3.50;;;1.40;;
13349;SDS011;6744;53.190;6.576;2022-08-21T14:34:47;3.57;;;1.50;;
13349;SDS011;6744;53.190;6.576;2022-08-21T14:37:12;3.50;;;1.60;;
13349;SDS011;6744;53.190;6.576;2022-08-21T14:39:37;3.77;;;1.40;;
13349;SDS011;6744;53.190;6.576;2022-08-21T14:42:03;3.63;;;1.77;;
13349;SDS011;6744;53.190;6.576;2022-08-21T14:44:29;3.43;;;1.70;;
13349;SDS011;6744;53.190;6.576;2022-08-21T14:46:55;4.23;;;1.60;;
13349;SDS011;6744;53.190;6.576;2022-08-21T14:49:21;5.17;;;1.70;;
13349;SDS011;6744;53.190;6.576;2022-08-21T14:51:47;5.47;;;1.57;;
13349;SDS011;6744;53.190;6.576;2022-08-21T14:54:13;3.30;;;1.50;;
13349;SDS011;6744;53.190;6.576;2022-08-21T14:56:39;2.80;;;1.63;;
13349;SDS011;6744;53.190;6.576;2022-08-21T14:59:05;3.97;;;1.40;;
13349;SDS011;6744;53.190;6.576;2022-08-21T15:01:34;3.97;;;1.60;;
13349;SDS011;6744;53.190;6.576;2022-08-21T15:04:01;4.43;;;1.40;;
13349;SDS011;6744;53.190;6.576;2022-08-21T15:06:26;4.60;;;1.90;;
13349;SDS011;6744;53.190;6.576;2022-08-21T15:08:51;4.90;;;2.17;;
13349;SDS011;6744;53.190;6.576;2022-08-21T15:11:18;4.20;;;1.57;;
13349;SDS011;6744;53.190;6.576;2022-08-21T15:13:45;3.93;;;1.63;;
13349;SDS011;6744;53.190;6.576;2022-08-21T15:16:11;3.27;;;1.47;;
13349;SDS011;6744;53.190;6.576;2022-08-21T15:18:37;3.57;;;1.43;;
13349;SDS011;6744;53.190;6.576;2022-08-21T15:21:02;4.73;;;1.77;;
13349;SDS011;6744;53.190;6.576;2022-08-21T15:23:28;3.57;;;1.50;;
13349;SDS011;6744;53.190;6.576;2022-08-21T15:25:53;3.43;;;1.50;;
13349;SDS011;6744;53.190;6.576;2022-08-21T15:28:19;4.07;;;1.50;;
13349;SDS011;6744;53.190;6.576;2022-08-21T15:30:47;4.73;;;1.70;;
13349;SDS011;6744;53.190;6.576;2022-08-21T15:33:12;3.90;;;1.70;;
13349;SDS011;6744;53.190;6.576;2022-08-21T15:35:38;3.60;;;1.67;;
13349;SDS011;6744;53.190;6.576;2022-08-21T15:38:04;4.23;;;2.00;;
13349;SDS011;6744;53.190;6.576;2022-08-21T15:40:30;5.40;;;1.60;;
13349;SDS011;6744;53.190;6.576;2022-08-21T15:42:56;3.20;;;1.63;;
13349;SDS011;6744;53.190;6.576;2022-08-21T15:45:24;4.53;;;1.60;;
13349;SDS011;6744;53.190;6.576;2022-08-21T15:47:50;2.90;;;1.70;;
13349;SDS011;6744;53.190;6.576;2022-08-21T15:50:16;4.13;;;1.77;;
13349;SDS011;6744;53.190;6.576;2022-08-21T15:52:42;4.33;;;1.70;;
13349;SDS011;6744;53.190;6.576;2022-08-21T15:55:08;6.77;;;2.07;;
13349;SDS011;6744;53.190;6.576;2022-08-21T15:57:34;5.03;;;1.80;;
13349;SDS011;6744;53.190;6.576;2022-08-21T16:00:03;6.00;;;1.90;;
13349;SDS011;6744;53.190;6.576;2022-08-21T16:02:51;4.60;;;1.77;;
13349;SDS011;6744;53.190;6.576;2022-08-21T16:05:19;3.87;;;1.80;;
13349;SDS011;6744;53.190;6.576;2022-08-21T16:07:45;5.23;;;1.80;;
13349;SDS011;6744;53.190;6.576;2022-08-21T16:10:12;5.83;;;2.10;;
13349;SDS011;6744;53.190;6.576;2022-08-21T16:12:40;4.83;;;2.10;;
13349;SDS011;6744;53.190;6.576;2022-08-21T16:15:08;4.87;;;1.70;;
13349;SDS011;6744;53.190;6.576;2022-08-21T16:17:35;4.37;;;2.23;;
13349;SDS011;6744;53.190;6.576;2022-08-21T16:20:06;5.10;;;1.87;;
13349;SDS011;6744;53.190;6.576;2022-08-21T16:22:33;5.37;;;1.90;;
13349;SDS011;6744;53.190;6.576;2022-08-21T16:24:59;5.60;;;2.10;;